KCKB/CKB METAR and TAF weather

Enter ICAO airport designator
Station Type Date Time Source
KCKB METAR 2024/06/14 02:53 UTC NOAA

KCKB 140253Z 00000KT 10SM CLR 19/14 A2999 RMK AO2 SLP140 T01940144 51007


Station Type Date Time Source
KCKB Decoded METAR 2024/06/14 02:53 UTC NOAA

HARRISON/MARION REGIONAL, WV, United States (KCKB) 39-18N 080-13W 360M
Jun 13, 2024 - 10:53 PM EDT / 2024.06.14 0253 UTC
Wind: Calm:0
Visibility: 10 mile(s):0
Sky conditions: clear
Temperature: 66.9 F (19.4 C)
Dew Point: 57.9 F (14.4 C)
Relative Humidity: 72%
Pressure (altimeter): 29.99 in. Hg (1015 hPa)
Pressure tendency: 0.02 inches (0.7 hPa) higher than three hours ago
ob: KCKB 140253Z 00000KT 10SM CLR 19/14 A2999 RMK AO2 SLP140 T01940144 51007
cycle: 3

Station Type Date Time Source
KCKB TAF 2024/06/14 03:57 UTC NOAA